Time;durP1;ratioP1;P1;durP2;ratioP2;P2;SDS_P1;SDS_P2;PMS_P1;PMS_P2;Temp;Humidity;BMP_temperature;BMP_pressure;BME280_temperature;BME280_humidity;BME280_pressure;Samples;Min_cycle;Max_cycle;Signal;HPM_P1;HPM_P2
2021/06/16 00:00:31;;;;;;;7.18;4.20;;;;;;;13.80;74.62;95660.22;5113188;28;20043;-80
2021/06/16 00:03:17;;;;;;;6.25;3.70;;;;;;;13.80;74.46;95667.41;5099070;28;20052;-79
2021/06/16 00:05:43;;;;;;;5.53;3.40;;;;;;;13.77;74.82;95660.03;5070316;28;20048;-80
2021/06/16 00:08:10;;;;;;;8.00;4.00;;;;;;;13.73;75.02;95653.75;5090285;28;20464;-79
2021/06/16 00:10:36;;;;;;;5.95;3.70;;;;;;;13.68;74.59;95652.72;5092576;28;20075;-80
2021/06/16 00:13:04;;;;;;;8.80;4.13;;;;;;;13.62;75.55;95653.88;5092939;28;20040;-79
2021/06/16 00:15:36;;;;;;;10.30;3.83;;;;;;;13.61;75.21;95654.94;5078981;28;20111;-80
2021/06/16 00:18:02;;;;;;;9.02;4.35;;;;;;;13.60;75.00;95656.00;5087892;28;20093;-79
2021/06/16 00:20:27;;;;;;;6.05;3.40;;;;;;;13.58;75.15;95649.47;5104944;28;20044;-80
2021/06/16 00:22:54;;;;;;;5.68;3.65;;;;;;;13.48;74.78;95642.44;5113094;28;20046;-80
2021/06/16 00:25:19;;;;;;;8.13;3.70;;;;;;;13.48;74.97;95650.38;5111307;28;20081;-79
2021/06/16 00:27:45;;;;;;;5.32;3.53;;;;;;;13.41;75.10;95642.00;5089915;28;20088;-80
2021/06/16 00:30:12;;;;;;;8.52;3.72;;;;;;;13.41;75.12;95652.56;5092681;28;20081;-80
2021/06/16 00:32:38;;;;;;;5.95;3.72;;;;;;;13.34;75.04;95648.41;5093106;28;20044;-80
2021/06/16 00:35:05;;;;;;;8.13;3.60;;;;;;;13.36;75.04;95648.13;5091063;28;20398;-80
2021/06/16 00:37:31;;;;;;;7.00;3.70;;;;;;;13.27;75.57;95653.22;5081895;28;20044;-81
2021/06/16 00:39:56;;;;;;;6.35;3.50;;;;;;;13.16;76.66;95638.56;5082166;28;20048;-80
2021/06/16 00:42:23;;;;;;;5.78;3.90;;;;;;;13.17;76.61;95653.34;5096291;28;20032;-81
2021/06/16 00:44:48;;;;;;;5.57;4.00;;;;;;;13.14;77.11;95638.81;5091870;28;20544;-79
2021/06/16 00:47:15;;;;;;;6.25;3.95;;;;;;;13.16;77.32;95651.78;5076723;28;20045;-80
2021/06/16 00:49:40;;;;;;;8.05;3.90;;;;;;;13.19;76.93;95651.22;5095249;28;20043;-80
2021/06/16 00:52:06;;;;;;;6.38;3.90;;;;;;;13.18;76.76;95639.06;5094761;28;20039;-80
2021/06/16 00:54:34;;;;;;;5.97;3.70;;;;;;;13.17;76.58;95646.22;5094530;28;20060;-79
2021/06/16 00:57:01;;;;;;;5.68;3.90;;;;;;;13.11;77.06;95654.47;5086638;28;20465;-79
2021/06/16 00:59:32;;;;;;;6.55;3.70;;;;;;;13.10;77.33;95642.31;5084182;28;20040;-80
2021/06/16 01:01:57;;;;;;;11.23;4.18;;;;;;;13.07;77.20;95648.16;5096172;28;20233;-80
2021/06/16 01:04:26;;;;;;;5.63;4.10;;;;;;;13.07;76.80;95643.66;5094834;28;20052;-80
2021/06/16 01:06:58;;;;;;;6.30;4.00;;;;;;;13.05;76.77;95647.69;5089561;28;20121;-79
2021/06/16 01:09:56;;;;;;;7.20;3.70;;;;;;;13.04;76.59;95648.72;5079104;28;20416;-80
2021/06/16 01:12:46;;;;;;;5.95;3.60;;;;;;;13.04;76.08;95640.81;5093665;28;20420;-80
2021/06/16 01:15:17;;;;;;;7.18;3.80;;;;;;;12.97;76.31;95641.94;5081281;28;20044;-80
2021/06/16 01:17:53;;;;;;;5.45;3.30;;;;;;;13.02;76.15;95645.59;5099889;28;20044;-80
2021/06/16 01:20:30;;;;;;;6.50;3.47;;;;;;;13.02;76.33;95645.59;5095694;28;20051;-80
2021/06/16 01:22:58;;;;;;;8.02;4.03;;;;;;;13.02;76.66;95650.88;5095900;28;20121;-79
2021/06/16 01:25:36;;;;;;;4.72;3.55;;;;;;;12.93;76.97;95643.56;5094062;28;20044;-80
2021/06/16 01:28:02;;;;;;;6.25;4.20;;;;;;;12.90;77.24;95644.13;5077368;28;20051;-80
2021/06/16 01:30:32;;;;;;;5.28;3.50;;;;;;;12.89;77.26;95642.56;5093551;28;20044;-80
2021/06/16 01:32:59;;;;;;;6.63;4.00;;;;;;;12.82;77.57;95642.09;5094690;28;20405;-79
2021/06/16 01:35:27;;;;;;;5.43;3.50;;;;;;;12.79;77.65;95632.88;5081393;28;20047;-79
2021/06/16 01:37:53;;;;;;;6.15;3.65;;;;;;;12.75;77.40;95636.34;5088770;28;20443;-80
2021/06/16 01:40:21;;;;;;;6.75;3.40;;;;;;;12.75;76.95;95631.06;5091020;28;20056;-80
2021/06/16 01:42:48;;;;;;;4.53;3.60;;;;;;;12.72;77.73;95636.91;5095288;28;20075;-80
2021/06/16 01:45:17;;;;;;;7.20;3.72;;;;;;;12.69;78.17;95621.63;5086628;28;20062;-80
2021/06/16 01:47:44;;;;;;;5.68;3.75;;;;;;;12.68;77.96;95631.41;5091720;28;20047;-80
2021/06/16 01:50:12;;;;;;;6.43;3.60;;;;;;;12.63;78.11;95629.59;5093148;28;20047;-80
2021/06/16 01:52:38;;;;;;;4.72;3.67;;;;;;;12.49;78.76;95633.97;5095182;28;20044;-80
2021/06/16 01:55:05;;;;;;;5.03;3.63;;;;;;;12.47;78.89;95641.38;5094826;28;20036;-80
2021/06/16 01:57:31;;;;;;;6.43;4.13;;;;;;;12.40;79.02;95627.72;5085739;28;20092;-80
2021/06/16 02:00:00;;;;;;;4.90;3.90;;;;;;;12.47;78.57;95630.81;5091801;28;20044;-80
2021/06/16 02:02:25;;;;;;;6.45;3.78;;;;;;;12.55;77.76;95632.06;5096129;28;20043;-80
2021/06/16 02:04:51;;;;;;;5.25;3.63;;;;;;;12.56;78.24;95639.69;5102220;28;20036;-80
2021/06/16 02:07:27;;;;;;;7.57;3.60;;;;;;;12.45;78.68;95632.94;5077242;28;20051;-80
2021/06/16 02:09:54;;;;;;;7.03;3.85;;;;;;;12.43;78.77;95629.81;5081876;28;20044;-80
2021/06/16 02:12:21;;;;;;;9.65;3.53;;;;;;;12.43;78.97;95635.06;5095602;28;20040;-80
2021/06/16 02:14:55;;;;;;;6.50;4.00;;;;;;;12.36;78.94;95629.34;5096185;28;20043;-80
2021/06/16 02:17:21;;;;;;;;;;;;;;;12.36;79.20;95639.88;5084358;28;20409;-80
2021/06/16 02:19:48;;;;;;;5.97;3.70;;;;;;;12.33;79.14;95624.63;5076188;28;20331;-80
2021/06/16 02:22:14;;;;;;;9.00;3.97;;;;;;;12.23;79.14;95623.63;5095753;28;20051;-80
2021/06/16 02:24:40;;;;;;;6.45;4.03;;;;;;;12.23;79.23;95615.72;5095739;28;20047;-80
2021/06/16 02:27:06;;;;;;;4.60;3.47;;;;;;;12.21;79.00;95617.84;5093003;28;20036;-80
2021/06/16 02:29:32;;;;;;;5.57;3.50;;;;;;;12.24;78.46;95617.28;5086257;28;20060;-80
2021/06/16 02:31:59;;;;;;;5.28;3.50;;;;;;;12.27;78.66;95616.72;5091100;28;20043;-80
2021/06/16 02:34:26;;;;;;;6.43;3.85;;;;;;;12.21;79.16;95615.22;5086239;28;20509;-80
2021/06/16 02:36:55;;;;;;;6.50;3.88;;;;;;;12.22;78.50;95618.63;5088596;28;20040;-80
2021/06/16 02:39:31;;;;;;;5.00;3.67;;;;;;;12.21;78.98;95623.13;5094011;28;20036;-79
2021/06/16 02:41:57;;;;;;;5.53;3.50;;;;;;;12.21;78.84;95617.03;5093892;28;20044;-80
2021/06/16 02:44:24;;;;;;;5.20;3.70;;;;;;;12.21;78.38;95623.13;5095385;28;20525;-80
2021/06/16 02:46:54;;;;;;;6.30;3.50;;;;;;;12.20;78.50;95621.53;5084771;28;20049;-80
2021/06/16 02:49:33;;;;;;;7.13;3.72;;;;;;;12.16;79.22;95619.75;5073358;28;20045;-80
2021/06/16 02:52:01;;;;;;;4.53;3.33;;;;;;;12.13;79.08;95621.06;5084855;28;20040;-80
2021/06/16 02:54:30;;;;;;;6.47;3.85;;;;;;;12.09;79.28;95625.31;5096562;28;20044;-80
2021/06/16 02:56:58;;;;;;;6.80;4.00;;;;;;;12.03;79.69;95636.97;5087625;28;20335;-80
2021/06/16 02:59:26;;;;;;;6.75;3.65;;;;;;;11.99;79.89;95630.69;5091057;28;20036;-80
2021/06/16 03:01:52;;;;;;;6.68;3.95;;;;;;;11.96;80.38;95632.78;5094161;28;20044;-80
2021/06/16 03:04:20;;;;;;;7.05;3.70;;;;;;;11.96;80.41;95622.22;5091381;28;20162;-80
2021/06/16 03:06:46;;;;;;;5.72;3.90;;;;;;;11.96;80.20;95627.50;5072656;28;20045;-80
2021/06/16 03:09:12;;;;;;;6.60;4.30;;;;;;;11.95;80.24;95627.78;5074612;28;20115;-80
2021/06/16 03:11:38;;;;;;;6.60;3.85;;;;;;;11.94;80.09;95624.38;5083993;28;20462;-80
2021/06/16 03:14:05;;;;;;;4.93;3.67;;;;;;;11.94;80.33;95628.88;5086837;28;20054;-80
2021/06/16 03:16:32;;;;;;;6.35;3.67;;;;;;;11.93;79.71;95628.06;5078339;28;20493;-80
2021/06/16 03:18:58;;;;;;;5.13;3.40;;;;;;;11.93;79.77;95628.06;5085073;28;20526;-80
2021/06/16 03:21:25;;;;;;;6.45;3.85;;;;;;;11.87;80.59;95628.34;5103856;28;20066;-80
2021/06/16 03:23:51;;;;;;;8.32;4.07;;;;;;;11.85;81.07;95636.53;5092502;28;20040;-80
2021/06/16 03:26:18;;;;;;;7.07;3.92;;;;;;;11.84;80.92;95634.97;5096461;28;20115;-80
2021/06/16 03:28:47;;;;;;;5.10;3.75;;;;;;;11.83;80.81;95633.38;5086567;28;20047;-79
2021/06/16 03:31:13;;;;;;;8.43;3.90;;;;;;;11.90;80.30;95625.94;5072331;28;20036;-80
2021/06/16 03:33:41;;;;;;;8.88;3.60;;;;;;;11.93;80.41;95628.06;5088034;28;20071;-80
2021/06/16 03:36:09;;;;;;;6.20;4.00;;;;;;;11.95;80.36;95636.50;5092721;28;20039;-80
2021/06/16 03:38:37;;;;;;;5.70;3.55;;;;;;;11.95;79.92;95625.94;5079801;28;20032;-80
2021/06/16 03:41:03;;;;;;;6.55;3.60;;;;;;;11.99;80.30;95626.19;5092291;28;20044;-80
2021/06/16 03:43:29;;;;;;;7.32;3.72;;;;;;;11.94;80.80;95619.09;5080782;28;20502;-80
2021/06/16 03:45:57;;;;;;;6.72;3.97;;;;;;;11.98;80.34;95623.81;5072077;28;20116;-80
2021/06/16 03:48:25;;;;;;;6.88;4.43;;;;;;;11.93;81.10;95625.41;5074159;28;20409;-80
2021/06/16 03:50:51;;;;;;;5.68;3.90;;;;;;;11.96;81.22;95629.38;5085132;28;20040;-80
2021/06/16 03:53:17;;;;;;;6.57;4.40;;;;;;;12.00;81.00;95624.34;5091924;28;20040;-80
2021/06/16 03:55:48;;;;;;;6.50;3.78;;;;;;;12.06;80.34;95617.97;5089175;28;20036;-80
2021/06/16 03:58:13;;;;;;;5.00;3.92;;;;;;;12.17;79.95;95632.66;5071594;28;20036;-80
2021/06/16 04:00:40;;;;;;;5.85;3.80;;;;;;;12.29;80.22;95625.16;5105512;28;20040;-80
2021/06/16 04:03:07;;;;;;;6.43;3.72;;;;;;;12.39;79.36;95626.13;5097755;28;20108;-80
2021/06/16 04:05:34;;;;;;;6.22;3.95;;;;;;;12.48;79.70;95627.09;5072285;28;20040;-80
2021/06/16 04:08:00;;;;;;;5.85;3.63;;;;;;;12.53;80.10;95632.34;5081889;28;20040;-80
2021/06/16 04:10:26;;;;;;;5.82;3.55;;;;;;;12.56;79.82;95626.50;5084858;28;20044;-80
2021/06/16 04:12:52;;;;;;;7.00;4.50;;;;;;;12.61;79.81;95631.75;5092724;28;20040;-80
2021/06/16 04:15:18;;;;;;;6.40;3.80;;;;;;;12.71;79.59;95630.84;5091947;28;20067;-80
2021/06/16 04:17:44;;;;;;;7.47;4.47;;;;;;;12.79;79.54;95629.44;5087974;28;20122;-80
2021/06/16 04:20:10;;;;;;;7.95;4.38;;;;;;;12.88;79.02;95630.41;5111926;28;20574;-79
2021/06/16 04:22:36;;;;;;;6.80;3.92;;;;;;;12.97;79.33;95634.03;5106511;28;20040;-80
2021/06/16 04:25:03;;;;;;;6.95;3.97;;;;;;;13.02;79.73;95632.41;5092956;28;20085;-80
2021/06/16 04:27:28;;;;;;;8.43;3.83;;;;;;;13.07;79.57;95629.69;5076530;28;20040;-80
2021/06/16 04:29:54;;;;;;;6.18;4.00;;;;;;;13.21;79.67;95627.91;5073315;28;20043;-80
2021/06/16 04:32:20;;;;;;;6.22;3.95;;;;;;;13.32;79.64;95632.03;5073186;28;20466;-80
2021/06/16 04:34:46;;;;;;;5.80;3.80;;;;;;;13.39;79.73;95625.63;5083191;28;20473;-80
2021/06/16 04:37:11;;;;;;;6.72;4.18;;;;;;;13.48;79.17;95626.56;5076455;28;20043;-80
2021/06/16 04:39:37;;;;;;;8.20;4.10;;;;;;;13.59;78.63;95617.44;5083701;28;20052;-79
2021/06/16 04:42:03;;;;;;;7.32;4.10;;;;;;;13.71;78.26;95624.16;5093117;28;20044;-80
2021/06/16 04:44:29;;;;;;;7.43;3.88;;;;;;;13.83;77.20;95622.66;5090603;28;20048;-79
2021/06/16 04:46:54;;;;;;;5.60;3.50;;;;;;;13.96;76.53;95625.63;5092061;28;20032;-79
2021/06/16 04:49:22;;;;;;;7.40;3.90;;;;;;;14.03;75.87;95621.53;5080564;28;20060;-80
2021/06/16 04:51:47;;;;;;;5.57;3.60;;;;;;;14.14;76.04;95626.69;5084142;28;20454;-79
2021/06/16 04:54:13;;;;;;;5.72;3.90;;;;;;;14.21;76.64;95622.59;5092420;28;20072;-80
2021/06/16 04:56:41;;;;;;;5.30;3.75;;;;;;;14.33;75.12;95635.38;5092734;28;20059;-80
2021/06/16 04:59:08;;;;;;;5.65;3.50;;;;;;;14.46;74.32;95627.75;5091439;28;20051;-79
2021/06/16 05:01:37;;;;;;;4.60;3.60;;;;;;;14.60;74.09;95625.94;5095495;28;20040;-80
2021/06/16 05:04:04;;;;;;;5.90;4.00;;;;;;;14.76;75.24;95636.28;5090673;28;20036;-80
2021/06/16 05:06:30;;;;;;;4.68;3.55;;;;;;;14.85;75.52;95640.59;5074256;28;20083;-80
2021/06/16 05:08:55;;;;;;;5.82;3.95;;;;;;;15.07;74.99;95636.50;5072261;28;20493;-80
2021/06/16 05:11:21;;;;;;;8.63;4.00;;;;;;;15.23;73.86;95624.50;5073760;28;20045;-80
2021/06/16 05:13:46;;;;;;;7.43;3.85;;;;;;;15.37;73.19;95635.13;5080659;28;20041;-80
2021/06/16 05:16:12;;;;;;;5.38;3.50;;;;;;;15.65;70.64;95624.44;5083105;28;20040;-80
2021/06/16 05:18:41;;;;;;;5.47;3.50;;;;;;;15.67;72.21;95627.56;5071910;28;20553;-80
2021/06/16 05:21:07;;;;;;;6.55;3.35;;;;;;;15.73;72.51;95637.00;5103451;28;20051;-80
2021/06/16 05:23:32;;;;;;;5.05;3.15;;;;;;;15.90;71.79;95625.00;5109191;28;20048;-80
2021/06/16 05:25:58;;;;;;;11.70;3.90;;;;;;;15.99;68.50;95623.22;5089366;28;20093;-80
2021/06/16 05:28:24;;;;;;;6.35;3.40;;;;;;;16.22;67.69;95618.69;5096118;28;20040;-80
2021/06/16 05:30:49;;;;;;;8.63;3.38;;;;;;;16.48;66.53;95612.75;5094518;28;20043;-80
2021/06/16 05:33:15;;;;;;;4.50;3.30;;;;;;;16.56;68.03;95614.66;5094213;28;20044;-80
2021/06/16 05:35:41;;;;;;;5.13;3.30;;;;;;;16.83;66.81;95622.75;5080161;28;20381;-80
2021/06/16 05:38:08;;;;;;;4.53;3.55;;;;;;;17.02;65.78;95619.88;5093827;28;20524;-80
2021/06/16 05:40:34;;;;;;;6.00;3.20;;;;;;;17.23;63.95;95620.13;5080718;28;20386;-80
2021/06/16 05:42:59;;;;;;;6.82;3.25;;;;;;;17.39;61.96;95623.91;5111495;28;20046;-80
2021/06/16 05:45:24;;;;;;;5.47;3.20;;;;;;;17.46;61.58;95623.44;5101981;28;20149;-80
2021/06/16 05:47:50;;;;;;;8.32;3.70;;;;;;;17.42;62.12;95617.94;5081580;28;20051;-80
2021/06/16 05:50:16;;;;;;;11.02;3.35;;;;;;;17.46;62.87;95618.91;5075446;28;20507;-80
2021/06/16 05:52:41;;;;;;;5.40;3.22;;;;;;;17.58;61.60;95620.19;5077634;28;20031;-80
2021/06/16 05:55:07;;;;;;;4.53;3.40;;;;;;;17.68;61.54;95619.88;5102431;28;20479;-80
2021/06/16 05:57:33;;;;;;;7.88;3.40;;;;;;;17.72;62.87;95620.03;5094501;28;20044;-80
2021/06/16 05:59:58;;;;;;;5.63;3.15;;;;;;;17.69;65.05;95621.44;5075648;28;20104;-80
2021/06/16 06:02:25;;;;;;;3.97;3.17;;;;;;;17.67;64.49;95628.97;5074053;28;20475;-80
2021/06/16 06:04:50;;;;;;;4.85;3.33;;;;;;;17.60;65.84;95623.31;5092797;28;20479;-80
2021/06/16 06:07:16;;;;;;;6.60;3.30;;;;;;;17.66;65.81;95627.41;5091602;28;20067;-80
2021/06/16 06:09:41;;;;;;;8.07;3.15;;;;;;;17.80;64.01;95630.69;5080512;28;20039;-80
2021/06/16 06:12:07;;;;;;;5.05;3.55;;;;;;;17.70;66.84;95622.22;5094838;28;20485;-80
2021/06/16 06:14:33;;;;;;;6.78;3.40;;;;;;;17.75;66.09;95625.50;5100051;28;20060;-80
2021/06/16 06:16:59;;;;;;;7.22;3.60;;;;;;;17.94;64.74;95616.47;5092489;28;20443;-80
2021/06/16 06:19:24;;;;;;;5.93;3.33;;;;;;;17.97;66.42;95627.28;5094438;28;20089;-80
2021/06/16 06:21:50;;;;;;;7.13;3.38;;;;;;;18.00;64.62;95620.53;5086524;28;20039;-80
2021/06/16 06:24:15;;;;;;;4.32;3.05;;;;;;;18.06;64.82;95624.63;5094511;28;20040;-80
2021/06/16 06:26:41;;;;;;;8.30;3.40;;;;;;;18.08;65.10;95617.09;5093497;28;20044;-80
2021/06/16 06:29:06;;;;;;;7.85;3.40;;;;;;;18.16;63.63;95613.63;5095850;27;20098;-80
2021/06/16 06:31:32;;;;;;;6.97;3.70;;;;;;;18.23;65.84;95612.38;5093644;28;20048;-80
2021/06/16 06:33:58;;;;;;;9.10;3.35;;;;;;;18.20;62.89;95618.34;5092171;28;20036;-80
2021/06/16 06:36:24;;;;;;;8.65;3.35;;;;;;;18.18;63.93;95611.44;5099980;28;20536;-80
2021/06/16 06:38:50;;;;;;;6.60;3.33;;;;;;;18.29;65.47;95611.13;5093474;28;20048;-81
2021/06/16 06:41:15;;;;;;;5.65;3.30;;;;;;;18.38;64.33;95614.53;5122899;28;20044;-81
2021/06/16 06:43:41;;;;;;;4.95;3.42;;;;;;;18.41;65.79;95613.91;5119688;28;20036;-80
2021/06/16 06:46:07;;;;;;;6.18;3.58;;;;;;;18.50;66.11;95606.69;5120944;28;20201;-81
2021/06/16 06:48:33;;;;;;;7.10;3.47;;;;;;;18.61;64.55;95617.00;5119916;28;20040;-78
2021/06/16 06:50:59;;;;;;;9.13;3.40;;;;;;;18.93;62.13;95605.00;5120720;28;20048;-77
2021/06/16 06:53:25;;;;;;;5.40;3.38;;;;;;;19.15;60.74;95603.97;5123443;28;20044;-78
2021/06/16 06:55:51;;;;;;;4.40;3.13;;;;;;;19.27;59.94;95597.16;5110954;28;20033;-77
2021/06/16 06:58:17;;;;;;;4.70;3.20;;;;;;;19.33;60.99;95603.84;5102355;28;20047;-79
2021/06/16 07:00:42;;;;;;;6.55;3.45;;;;;;;19.29;62.45;95597.59;5105668;28;20040;-79
2021/06/16 07:03:08;;;;;;;5.47;3.40;;;;;;;19.61;59.31;95598.03;5097713;28;20127;-79
2021/06/16 07:05:34;;;;;;;5.53;3.20;;;;;;;19.77;59.19;95607.03;5081177;28;20036;-79
2021/06/16 07:07:59;;;;;;;4.90;3.35;;;;;;;19.89;59.05;95598.31;5089004;28;20097;-80
2021/06/16 07:10:25;;;;;;;5.90;3.40;;;;;;;20.05;57.51;95604.59;5099711;28;20457;-80
2021/06/16 07:12:50;;;;;;;12.38;3.50;;;;;;;20.08;59.75;95611.19;5107527;28;20044;-81
2021/06/16 07:15:16;;;;;;;7.35;3.63;;;;;;;20.04;59.11;95604.94;5098030;28;20277;-81
2021/06/16 07:17:43;;;;;;;8.68;3.50;;;;;;;20.32;55.84;95604.38;5091848;28;20036;-77
2021/06/16 07:20:09;;;;;;;5.85;3.00;;;;;;;20.23;58.95;95597.22;5092580;28;20044;-78
2021/06/16 07:22:35;;;;;;;11.95;3.50;;;;;;;20.29;55.74;95597.03;5100089;28;20040;-78
2021/06/16 07:25:00;;;;;;;7.40;3.60;;;;;;;20.22;55.83;95589.53;5097751;28;20036;-80
2021/06/16 07:27:26;;;;;;;6.03;3.38;;;;;;;20.21;58.95;95591.44;5079000;28;20037;-78
2021/06/16 07:29:51;;;;;;;6.28;3.15;;;;;;;20.14;57.95;95582.38;5093322;28;20044;-77
2021/06/16 07:32:17;;;;;;;7.82;4.15;;;;;;;20.12;55.55;95589.97;5088278;28;20042;-78
2021/06/16 07:34:43;;;;;;;7.07;3.95;;;;;;;20.11;57.72;95586.50;5089847;28;20158;-79
2021/06/16 07:37:09;;;;;;;9.35;3.30;;;;;;;20.10;57.77;95582.28;5079989;28;20044;-79
2021/06/16 07:39:35;;;;;;;6.03;3.25;;;;;;;20.28;53.69;95576.75;5080757;28;20040;-80
2021/06/16 07:42:00;;;;;;;6.32;3.50;;;;;;;20.40;53.57;95580.25;5102224;28;20040;-79
2021/06/16 07:44:26;;;;;;;6.05;3.15;;;;;;;20.32;54.35;95583.00;5104909;28;20040;-79
2021/06/16 07:46:53;;;;;;;8.43;3.50;;;;;;;20.37;54.14;95586.25;5089147;28;20036;-79
2021/06/16 07:49:18;;;;;;;5.60;3.00;;;;;;;20.41;53.70;95581.00;5093094;28;20040;-80
2021/06/16 07:51:44;;;;;;;7.43;3.10;;;;;;;20.43;54.52;95578.81;5094966;28;20032;-78
2021/06/16 07:54:13;;;;;;;7.15;3.13;;;;;;;20.57;52.91;95581.97;5098126;28;20054;-80
2021/06/16 07:56:40;;;;;;;7.72;3.35;;;;;;;20.62;56.12;95580.19;5090914;28;20114;-81
2021/06/16 07:59:06;;;;;;;9.02;3.10;;;;;;;20.79;51.21;95574.66;5094515;28;20031;-81
2021/06/16 08:01:33;;;;;;;5.13;2.88;;;;;;;20.92;48.99;95568.19;5097228;28;20512;-80
2021/06/16 08:03:59;;;;;;;5.88;3.25;;;;;;;20.90;50.54;95581.13;5097802;28;20051;-80
2021/06/16 08:06:25;;;;;;;6.80;2.70;;;;;;;20.96;50.87;95583.56;5096003;28;20126;-79
2021/06/16 08:08:50;;;;;;;5.57;3.30;;;;;;;20.95;51.25;95577.44;5091802;28;20144;-79
2021/06/16 08:11:16;;;;;;;8.50;3.30;;;;;;;21.14;52.49;95584.91;5089998;28;20040;-81
2021/06/16 08:13:42;;;;;;;8.85;3.38;;;;;;;21.11;48.62;95577.56;5088815;28;20043;-80
2021/06/16 08:16:07;;;;;;;9.00;3.10;;;;;;;21.29;50.84;95575.41;5108509;28;20040;-79
2021/06/16 08:18:33;;;;;;;4.82;3.17;;;;;;;21.26;53.17;95571.53;5091118;28;20036;-80
2021/06/16 08:20:59;;;;;;;7.05;3.10;;;;;;;21.53;49.21;95579.19;5113637;28;20047;-80
2021/06/16 08:23:24;;;;;;;10.20;3.38;;;;;;;21.58;49.73;95577.06;5113672;28;20093;-80
2021/06/16 08:25:50;;;;;;;8.90;3.42;;;;;;;21.51;50.06;95576.88;5107182;28;20111;-80
2021/06/16 08:28:16;;;;;;;5.32;3.28;;;;;;;21.71;49.44;95579.72;5077614;28;20041;-80
2021/06/16 08:30:41;;;;;;;7.55;3.42;;;;;;;21.74;48.37;95573.69;5073040;28;20452;-81
2021/06/16 08:33:07;;;;;;;9.65;3.38;;;;;;;22.01;49.18;95576.72;5101738;28;20032;-80
2021/06/16 08:35:32;;;;;;;9.20;3.25;;;;;;;22.57;46.99;95571.31;5093522;28;20050;-80
2021/06/16 08:37:58;;;;;;;5.15;3.33;;;;;;;22.84;45.87;95574.25;5098050;28;20501;-80
2021/06/16 08:40:23;;;;;;;7.65;3.35;;;;;;;22.94;46.05;95579.13;5090042;28;20044;-81
2021/06/16 08:42:49;;;;;;;6.97;3.13;;;;;;;22.85;47.66;95575.81;5108352;28;20051;-80
2021/06/16 08:45:18;;;;;;;5.38;3.47;;;;;;;22.67;47.71;95567.34;5101818;28;20050;-80
2021/06/16 08:47:51;;;;;;;5.55;3.00;;;;;;;23.01;47.50;95562.38;5086423;28;20469;-81
2021/06/16 08:50:17;;;;;;;16.73;4.03;;;;;;;22.98;47.39;95561.16;5092328;28;20097;-81
2021/06/16 08:52:44;;;;;;;5.68;3.58;;;;;;;23.00;45.49;95567.00;5094011;28;20044;-81
2021/06/16 08:55:17;;;;;;;4.97;3.08;;;;;;;23.17;45.85;95567.75;5079605;28;20044;-81
2021/06/16 08:57:43;;;;;;;8.70;3.25;;;;;;;23.24;45.71;95575.19;5077068;28;20063;-81
2021/06/16 09:00:10;;;;;;;7.15;3.30;;;;;;;23.24;43.33;95575.97;5077992;28;20408;-81
2021/06/16 09:02:36;;;;;;;4.80;3.00;;;;;;;23.64;43.66;95561.47;5082695;28;20143;-80
2021/06/16 09:05:03;;;;;;;5.88;3.63;;;;;;;23.49;45.14;95559.66;5085225;28;20036;-81
2021/06/16 09:07:32;;;;;;;6.38;3.47;;;;;;;23.53;43.51;95560.47;5092889;28;20096;-81
2021/06/16 09:10:18;;;;;;;6.38;3.13;;;;;;;23.51;43.23;95552.00;5077768;28;20059;-81
2021/06/16 09:12:52;;;;;;;7.03;3.53;;;;;;;23.70;43.98;95552.03;5094249;28;20051;-80
2021/06/16 09:15:21;;;;;;;10.95;3.80;;;;;;;23.64;40.20;95550.72;5093017;28;20040;-81
2021/06/16 09:18:02;;;;;;;8.60;2.95;;;;;;;23.69;42.21;95552.34;5085721;28;20040;-81
2021/06/16 09:20:29;;;;;;;6.15;3.40;;;;;;;23.66;42.64;95553.88;5074871;28;20725;-80
2021/06/16 09:23:16;;;;;;;7.35;3.25;;;;;;;23.80;44.18;95552.59;5094146;28;20375;-81
2021/06/16 09:25:43;;;;;;;6.50;3.30;;;;;;;23.85;41.68;95555.00;5083306;28;20048;-81
2021/06/16 09:28:10;;;;;;;7.97;3.30;;;;;;;23.87;41.94;95558.13;5089578;28;20082;-81
2021/06/16 09:30:42;;;;;;;6.40;3.22;;;;;;;24.10;41.38;95554.72;5089670;28;20052;-80
2021/06/16 09:33:16;;;;;;;4.28;2.97;;;;;;;24.15;41.30;95562.50;5078812;28;20036;-80
2021/06/16 09:35:46;;;;;;;6.18;3.35;;;;;;;23.99;41.08;95549.94;5094113;28;20473;-81
2021/06/16 09:38:24;;;;;;;7.45;3.33;;;;;;;24.07;40.31;95550.84;5083933;28;20077;-81
2021/06/16 09:40:51;;;;;;;9.80;3.38;;;;;;;24.20;43.20;95564.91;5072569;28;20036;-81
2021/06/16 09:43:19;;;;;;;6.85;3.55;;;;;;;24.11;41.04;95551.69;5072350;28;20534;-81
2021/06/16 09:45:46;;;;;;;6.20;3.15;;;;;;;24.15;39.21;95552.53;5073730;28;20036;-81
2021/06/16 09:48:34;;;;;;;4.60;3.10;;;;;;;24.36;37.26;95540.59;5073111;28;20047;-81
2021/06/16 09:51:13;;;;;;;5.97;3.30;;;;;;;24.31;38.56;95536.28;5089165;28;20041;-81
2021/06/16 09:53:58;;;;;;;3.70;2.63;;;;;;;24.37;38.45;95547.53;5073641;28;20130;-80
2021/06/16 09:56:29;;;;;;;5.97;2.90;;;;;;;24.56;37.94;95544.00;5072279;28;20124;-80
2021/06/16 09:58:55;;;;;;;6.05;2.90;;;;;;;24.97;36.54;95541.63;5073270;28;20056;-80
2021/06/16 10:01:55;;;;;;;7.78;3.80;;;;;;;25.22;36.91;95546.59;5072399;28;20044;-81
2021/06/16 10:04:35;;;;;;;6.53;2.90;;;;;;;25.35;34.60;95544.47;5071368;28;20040;-81
2021/06/16 10:07:23;;;;;;;6.30;2.75;;;;;;;25.49;34.77;95543.91;5071101;28;20136;-80
2021/06/16 10:10:10;;;;;;;5.20;2.88;;;;;;;25.71;34.16;95540.31;5072243;28;20060;-81
2021/06/16 10:12:40;;;;;;;5.63;2.80;;;;;;;25.64;31.58;95534.84;5074371;28;20051;-82
2021/06/16 10:15:18;;;;;;;7.75;3.10;;;;;;;25.86;35.02;95540.47;5073133;28;20049;-80
2021/06/16 10:17:45;;;;;;;8.13;2.78;;;;;;;26.11;35.03;95538.88;5087244;28;20098;-80
2021/06/16 10:20:13;;;;;;;4.35;2.80;;;;;;;26.59;30.53;95537.38;5071463;28;20133;-80
2021/06/16 10:22:39;;;;;;;5.10;2.78;;;;;;;26.97;30.47;95535.41;5071504;28;20055;-81
2021/06/16 10:25:05;;;;;;;5.70;2.80;;;;;;;27.10;32.16;95533.19;5072693;28;20165;-81
2021/06/16 10:27:45;;;;;;;4.30;2.28;;;;;;;27.26;27.46;95533.66;5070948;28;20146;-80
2021/06/16 10:30:13;;;;;;;4.50;2.58;;;;;;;27.59;26.82;95531.16;5072932;28;20044;-79
2021/06/16 10:32:50;;;;;;;4.93;2.65;;;;;;;27.76;27.56;95518.88;5072334;28;20044;-80
2021/06/16 10:35:34;;;;;;;3.28;2.28;;;;;;;28.04;24.83;95523.59;5081250;28;20040;-80
2021/06/16 10:38:11;;;;;;;6.35;2.90;;;;;;;28.31;27.16;95515.16;5088195;28;20048;-79
2021/06/16 10:40:44;;;;;;;3.60;2.50;;;;;;;28.48;26.59;95509.00;5089802;28;20461;-79
2021/06/16 10:43:16;;;;;;;4.65;2.70;;;;;;;28.75;28.50;95505.94;5091319;28;20044;-80
2021/06/16 10:45:57;;;;;;;8.95;2.97;;;;;;;29.21;27.52;95505.09;5092705;28;20511;-80
2021/06/16 10:48:58;;;;;;;7.53;3.20;;;;;;;29.22;28.22;95516.69;5072591;28;20044;-80
2021/06/16 10:51:36;;;;;;;5.80;3.10;;;;;;;29.02;27.58;95502.78;5072637;28;20060;-80
2021/06/16 10:54:11;;;;;;;7.47;3.00;;;;;;;29.12;28.58;95506.66;5071538;28;20043;-80
2021/06/16 10:56:42;;;;;;;5.60;2.92;;;;;;;28.73;27.73;95497.41;5072192;28;20048;-80
2021/06/16 10:59:07;;;;;;;5.82;2.80;;;;;;;30.07;25.12;95505.97;5071530;28;20051;-80
2021/06/16 11:01:46;;;;;;;4.22;3.05;;;;;;;29.29;27.27;95500.44;5072230;28;20044;-80
2021/06/16 11:04:28;;;;;;;5.68;2.70;;;;;;;30.12;26.42;95499.34;5072360;28;20040;-80
2021/06/16 11:06:54;;;;;;;7.53;2.80;;;;;;;29.78;25.64;95508.78;5082948;28;20040;-80
2021/06/16 11:09:49;;;;;;;3.58;2.38;;;;;;;29.07;23.73;95505.13;5082001;28;20063;-80
2021/06/16 11:12:14;;;;;;;5.03;2.60;;;;;;;30.08;25.39;95499.34;5072127;28;20421;-80
2021/06/16 11:14:40;;;;;;;5.68;2.78;;;;;;;31.19;24.63;95491.53;5072182;28;20064;-80
2021/06/16 11:17:10;;;;;;;5.18;3.00;;;;;;;31.91;22.93;95496.13;5070109;28;20052;-80
2021/06/16 11:19:36;;;;;;;6.50;3.08;;;;;;;31.47;24.43;95490.44;5085461;28;20056;-80
2021/06/16 11:22:11;;;;;;;6.00;2.97;;;;;;;32.02;23.67;95496.00;5092546;28;20093;-80
2021/06/16 11:25:07;;;;;;;6.65;2.88;;;;;;;32.35;20.35;95485.44;5093125;28;20044;-80
2021/06/16 11:27:54;;;;;;;5.53;2.78;;;;;;;32.09;23.20;95499.38;5074017;28;20053;-80
2021/06/16 11:30:29;;;;;;;5.15;2.70;;;;;;;32.50;20.67;95492.22;5073147;28;20537;-80
2021/06/16 11:33:20;;;;;;;4.72;2.95;;;;;;;31.43;23.45;95485.06;5071511;28;20041;-80
2021/06/16 11:35:48;;;;;;;5.53;3.10;;;;;;;31.41;23.34;95486.63;5073560;28;20040;-80
2021/06/16 11:38:17;;;;;;;5.65;2.97;;;;;;;31.00;24.17;95484.69;5072401;28;20036;-80
2021/06/16 11:41:05;;;;;;;7.03;2.80;;;;;;;31.36;24.33;95484.34;5071400;28;20037;-80